createdAt,value
2019-04-28T00:00:31.460Z,3.55
2019-04-28T00:03:00.849Z,4.15
2019-04-28T00:05:30.900Z,3.83
2019-04-28T00:08:01.201Z,3.42
2019-04-28T00:10:32.064Z,3.83
2019-04-28T00:13:01.277Z,4.15
2019-04-28T00:15:30.950Z,5.33
2019-04-28T00:18:01.588Z,3.98
2019-04-28T00:20:51.035Z,4.22
2019-04-28T00:23:22.378Z,4.95
2019-04-28T00:25:58.869Z,3.58
2019-04-28T00:28:27.944Z,4.75
2019-04-28T00:30:56.968Z,3.60
2019-04-28T00:33:26.008Z,4.53
2019-04-28T00:35:55.058Z,4.12
2019-04-28T00:38:24.082Z,5.90
2019-04-28T00:40:53.119Z,5.62
2019-04-28T00:43:22.213Z,5.92
2019-04-28T00:45:51.323Z,7.03
2019-04-28T00:48:20.916Z,6.35
2019-04-28T00:50:51.871Z,5.90
2019-04-28T00:53:23.012Z,5.65
2019-04-28T00:55:54.053Z,6.50
2019-04-28T00:58:22.498Z,5.78
2019-04-28T01:00:53.187Z,7.25
2019-04-28T01:03:23.961Z,7.25
2019-04-28T01:05:53.139Z,5.87
2019-04-28T01:08:22.251Z,7.15
2019-04-28T01:10:51.357Z,6.17
2019-04-28T01:13:21.473Z,6.35
2019-04-28T01:15:59.386Z,5.20
2019-04-28T01:18:30.359Z,5.25
2019-04-28T01:20:59.767Z,5.03
2019-04-28T01:23:30.281Z,5.20
2019-04-28T01:26:00.047Z,5.03
2019-04-28T01:28:29.776Z,5.30
2019-04-28T01:31:06.602Z,4.50
2019-04-28T01:33:37.293Z,4.42
2019-04-28T01:36:06.323Z,4.05
2019-04-28T01:38:35.351Z,4.72
2019-04-28T01:41:04.477Z,4.87
2019-04-28T01:43:33.512Z,3.95
2019-04-28T01:46:02.557Z,5.17
2019-04-28T01:48:31.669Z,5.08
2019-04-28T01:51:00.793Z,5.62
2019-04-28T01:53:30.801Z,5.95
2019-04-28T01:56:00.039Z,4.35
2019-04-28T01:58:29.718Z,4.28
2019-04-28T02:00:59.561Z,5.55
2019-04-28T02:03:30.584Z,7.75
2019-04-28T02:06:00.184Z,5.10
2019-04-28T02:08:30.196Z,4.87
2019-04-28T02:11:00.146Z,5.50
2019-04-28T02:13:29.817Z,4.97
2019-04-28T02:16:00.009Z,5.80
2019-04-28T02:18:29.932Z,4.80
2019-04-28T02:21:00.810Z,4.15
2019-04-28T02:23:34.432Z,5.62
2019-04-28T02:26:03.532Z,4.20
2019-04-28T02:28:32.568Z,5.90
2019-04-28T02:31:02.413Z,6.60
2019-04-28T02:33:31.608Z,5.83
2019-04-28T02:36:01.417Z,4.83
2019-04-28T02:38:33.969Z,6.12
2019-04-28T02:41:01.506Z,5.08
2019-04-28T02:43:30.893Z,6.45
2019-04-28T02:46:00.772Z,4.80
2019-04-28T02:48:30.980Z,6.60
2019-04-28T02:51:01.956Z,5.65
2019-04-28T02:53:33.726Z,4.50
2019-04-28T02:56:03.154Z,6.12
2019-04-28T02:58:32.209Z,6.55
2019-04-28T03:01:11.242Z,4.83
2019-04-28T03:03:31.978Z,4.58
2019-04-28T03:06:01.614Z,5.95
2019-04-28T03:08:30.880Z,6.60
2019-04-28T03:11:00.886Z,7.35
2019-04-28T03:13:31.140Z,6.40
2019-04-28T03:16:01.627Z,7.33
2019-04-28T03:18:31.887Z,6.25
2019-04-28T03:21:03.876Z,7.12
2019-04-28T03:23:32.051Z,7.58
2019-04-28T03:26:02.725Z,7.37
2019-04-28T03:28:33.895Z,7.40
2019-04-28T03:31:35.206Z,7.35
2019-04-28T03:33:41.670Z,8.38
2019-04-28T03:36:08.418Z,7.22
2019-04-28T03:38:37.072Z,6.15
2019-04-28T03:41:06.099Z,7.70
2019-04-28T03:43:35.126Z,8.68
2019-04-28T03:46:10.519Z,7.33
2019-04-28T03:48:40.866Z,5.45
2019-04-28T03:51:10.811Z,6.10
2019-04-28T03:53:41.208Z,6.40
2019-04-28T03:56:11.421Z,6.55
2019-04-28T03:58:40.842Z,6.97
2019-04-28T04:01:10.788Z,10.65
2019-04-28T04:03:41.767Z,8.08
2019-04-28T04:06:10.927Z,7.75
2019-04-28T04:08:40.853Z,8.10
2019-04-28T04:11:11.818Z,11.00
2019-04-28T04:13:42.482Z,6.80
2019-04-28T04:16:20.682Z,11.38
2019-04-28T04:18:53.817Z,6.92
2019-04-28T04:21:22.174Z,10.13
2019-04-28T04:23:51.261Z,6.72
2019-04-28T04:26:21.276Z,7.70
2019-04-28T04:28:51.446Z,9.38
2019-04-28T04:31:20.850Z,8.53
2019-04-28T04:33:50.682Z,10.30
2019-04-28T04:36:21.123Z,10.18
2019-04-28T04:38:51.251Z,11.65
2019-04-28T04:41:22.402Z,10.70
2019-04-28T04:43:51.621Z,10.32
2019-04-28T04:46:22.767Z,12.37
2019-04-28T04:48:52.184Z,13.18
2019-04-28T04:51:21.788Z,10.78
2019-04-28T04:53:51.594Z,9.60
2019-04-28T04:56:21.519Z,11.28
2019-04-28T04:58:50.950Z,10.05
2019-04-28T05:01:40.427Z,11.55
2019-04-28T05:04:13.267Z,12.58
2019-04-28T05:06:42.602Z,11.48
2019-04-28T05:09:11.888Z,12.55
2019-04-28T05:11:40.958Z,13.10
2019-04-28T05:14:12.095Z,11.43
2019-04-28T05:16:40.839Z,9.50
2019-04-28T05:19:10.372Z,9.83
2019-04-28T05:21:40.301Z,11.03
2019-04-28T05:24:30.338Z,10.20
2019-04-28T05:26:59.712Z,8.35
2019-04-28T05:29:30.439Z,9.95
2019-04-28T05:32:03.142Z,9.18
2019-04-28T05:34:30.319Z,9.93
2019-04-28T05:37:00.676Z,9.58
2019-04-28T05:39:30.118Z,8.30
2019-04-28T05:42:00.882Z,11.05
2019-04-28T05:44:31.815Z,8.68
2019-04-28T05:47:00.715Z,9.20
2019-04-28T05:49:49.800Z,9.20
2019-04-28T05:52:40.203Z,9.98
2019-04-28T05:55:10.906Z,8.80
2019-04-28T05:57:47.141Z,8.38
2019-04-28T06:00:19.755Z,9.83
2019-04-28T06:02:56.455Z,8.98
2019-04-28T06:05:21.404Z,7.60
2019-04-28T06:07:52.086Z,8.25
2019-04-28T06:10:21.118Z,8.30
2019-04-28T06:12:50.154Z,9.05
2019-04-28T06:15:20.434Z,7.15
2019-04-28T06:17:49.901Z,7.53
2019-04-28T06:20:20.112Z,7.05
2019-04-28T06:22:49.425Z,6.75
2019-04-28T06:25:18.639Z,6.80
2019-04-28T06:27:47.664Z,5.90
2019-04-28T06:30:16.858Z,5.90
2019-04-28T06:32:45.889Z,6.72
2019-04-28T06:35:14.927Z,7.22
2019-04-28T06:37:43.967Z,5.12
2019-04-28T06:40:13.450Z,5.58
2019-04-28T06:42:42.483Z,6.15
2019-04-28T06:45:11.683Z,5.60
2019-04-28T06:47:40.723Z,6.95
2019-04-28T06:50:10.308Z,6.95
2019-04-28T06:52:39.401Z,7.95
2019-04-28T06:55:08.585Z,6.50
2019-04-28T06:57:37.618Z,9.45
2019-04-28T07:00:08.471Z,4.83
2019-04-28T07:02:37.505Z,4.62
2019-04-28T07:05:07.297Z,6.45
2019-04-28T07:07:36.335Z,3.83
2019-04-28T07:10:08.663Z,5.37
2019-04-28T07:12:37.713Z,4.83
2019-04-28T07:15:07.022Z,4.95
2019-04-28T07:17:36.039Z,4.62
2019-04-28T07:20:24.029Z,6.10
2019-04-28T07:22:53.123Z,4.08
2019-04-28T07:25:22.234Z,4.33
2019-04-28T07:27:51.274Z,5.42
2019-04-28T07:30:20.318Z,4.17
2019-04-28T07:32:49.396Z,5.65
2019-04-28T07:35:18.581Z,5.83
2019-04-28T07:37:47.613Z,4.87
2019-04-28T07:40:16.638Z,5.33
2019-04-28T07:42:45.705Z,5.87
2019-04-28T07:45:15.016Z,6.83
2019-04-28T07:47:44.066Z,6.55
2019-04-28T07:50:13.638Z,5.80
2019-04-28T07:52:50.552Z,7.92
2019-04-28T07:55:19.575Z,5.37
2019-04-28T07:57:48.700Z,6.72
2019-04-28T08:00:28.691Z,6.40
2019-04-28T08:02:57.741Z,5.95
2019-04-28T08:05:26.770Z,5.58
2019-04-28T08:07:55.806Z,4.45
2019-04-28T08:10:24.846Z,5.45
2019-04-28T08:12:53.906Z,5.15
2019-04-28T08:15:22.928Z,6.22
2019-04-28T08:17:51.993Z,5.50
2019-04-28T08:20:21.026Z,5.92
2019-04-28T08:22:50.081Z,7.10
2019-04-28T08:25:19.106Z,7.65
2019-04-28T08:27:48.156Z,7.30
2019-04-28T08:30:17.348Z,7.05
2019-04-28T08:32:50.468Z,8.13
2019-04-28T08:35:19.502Z,8.43
2019-04-28T08:37:48.549Z,7.47
2019-04-28T08:40:17.577Z,5.75
2019-04-28T08:42:46.630Z,4.50
2019-04-28T08:45:16.180Z,5.20
2019-04-28T08:47:45.239Z,4.40
2019-04-28T08:50:14.335Z,4.90
2019-04-28T08:52:43.444Z,4.47
2019-04-28T08:55:12.917Z,5.65
2019-04-28T08:57:41.973Z,5.67
2019-04-28T09:00:12.502Z,6.37
2019-04-28T09:02:41.547Z,6.17
2019-04-28T09:05:10.652Z,4.03
2019-04-28T09:07:39.754Z,6.70
2019-04-28T09:10:09.517Z,5.58
2019-04-28T09:12:38.572Z,6.83
2019-04-28T09:15:08.139Z,6.45
2019-04-28T09:17:37.167Z,6.25
2019-04-28T09:20:09.650Z,4.90
2019-04-28T09:22:38.683Z,5.92
2019-04-28T09:25:07.973Z,4.70
2019-04-28T09:27:37.073Z,6.20
2019-04-28T09:30:06.851Z,4.87
2019-04-28T09:32:36.027Z,6.17
2019-04-28T09:35:06.883Z,5.15
2019-04-28T09:37:36.099Z,5.10
2019-04-28T09:40:10.448Z,4.22
2019-04-28T09:42:43.926Z,4.25
2019-04-28T09:45:20.770Z,4.30
2019-04-28T09:47:49.804Z,6.17
2019-04-28T09:50:18.942Z,4.90
2019-04-28T09:52:48.798Z,5.42
2019-04-28T09:55:18.118Z,6.95
2019-04-28T09:57:47.148Z,7.10
2019-04-28T10:00:16.374Z,4.17
2019-04-28T10:02:45.426Z,8.85
2019-04-28T10:05:14.761Z,6.28
2019-04-28T10:07:43.814Z,7.40
2019-04-28T10:10:13.401Z,5.15
2019-04-28T10:12:42.444Z,5.87
2019-04-28T10:15:11.880Z,10.95
2019-04-28T10:17:40.966Z,8.15
2019-04-28T10:20:10.603Z,4.85
2019-04-28T10:22:39.636Z,7.90
2019-04-28T10:25:09.325Z,8.63
2019-04-28T10:27:38.449Z,9.80
2019-04-28T10:30:11.247Z,6.47
2019-04-28T10:32:40.356Z,6.05
2019-04-28T10:35:09.796Z,8.03
2019-04-28T10:37:38.889Z,5.83
2019-04-28T10:40:10.125Z,5.10
2019-04-28T10:42:39.192Z,12.43
2019-04-28T10:45:10.006Z,5.78
2019-04-28T10:47:39.059Z,5.65
2019-04-28T10:50:08.733Z,10.20
2019-04-28T10:52:37.768Z,5.42
2019-04-28T10:55:07.031Z,7.08
2019-04-28T10:57:36.096Z,7.25
2019-04-28T11:00:09.381Z,7.67
2019-04-28T11:02:40.093Z,13.58
2019-04-28T11:05:10.953Z,6.37
2019-04-28T11:07:40.057Z,9.85
2019-04-28T11:10:10.989Z,6.28
2019-04-28T11:12:40.190Z,6.22
2019-04-28T11:15:13.806Z,6.15
2019-04-28T11:17:42.850Z,8.15
2019-04-28T11:20:11.966Z,7.40
2019-04-28T11:22:41.097Z,5.62
2019-04-28T11:25:10.392Z,5.67
2019-04-28T11:27:39.484Z,7.58
2019-04-28T11:30:09.026Z,5.17
2019-04-28T11:32:39.718Z,6.62
2019-04-28T11:35:20.877Z,7.97
2019-04-28T11:37:41.527Z,5.97
2019-04-28T11:40:10.992Z,5.95
2019-04-28T11:42:40.128Z,5.37
2019-04-28T11:45:09.566Z,5.25
2019-04-28T11:47:38.616Z,7.22
2019-04-28T11:50:08.709Z,8.05
2019-04-28T11:52:37.732Z,5.12
2019-04-28T11:55:07.398Z,4.72
2019-04-28T11:57:36.527Z,4.78
2019-04-28T12:00:26.696Z,8.50
2019-04-28T12:02:55.909Z,7.00
2019-04-28T12:05:34.264Z,5.17
2019-04-28T12:07:57.344Z,6.00
2019-04-28T12:10:30.702Z,5.33
2019-04-28T12:13:01.470Z,7.12
2019-04-28T12:15:34.895Z,8.45
2019-04-28T12:18:21.210Z,6.42
2019-04-28T12:20:50.327Z,5.37
2019-04-28T12:23:19.377Z,5.05
2019-04-28T12:25:48.415Z,5.22
2019-04-28T12:28:17.456Z,5.90
2019-04-28T12:30:46.495Z,4.90
2019-04-28T12:33:15.549Z,4.97
2019-04-28T12:35:48.159Z,6.17
2019-04-28T12:38:15.345Z,4.75
2019-04-28T12:40:44.381Z,5.87
2019-04-28T12:43:13.427Z,5.00
2019-04-28T12:45:42.479Z,4.17
2019-04-28T12:48:11.515Z,5.20
2019-04-28T12:50:44.907Z,5.62
2019-04-28T12:53:13.967Z,5.15
2019-04-28T12:55:43.008Z,4.70
2019-04-28T12:58:12.035Z,5.00
2019-04-28T13:00:54.421Z,5.62
2019-04-28T13:03:31.226Z,4.25
2019-04-28T13:06:05.627Z,4.92
2019-04-28T13:08:32.677Z,5.35
2019-04-28T13:11:01.742Z,4.92
2019-04-28T13:13:30.799Z,5.25
2019-04-28T13:15:59.919Z,5.42
2019-04-28T13:18:28.946Z,3.65
2019-04-28T13:20:59.093Z,4.83
2019-04-28T13:23:28.315Z,3.85
2019-04-28T13:25:57.365Z,4.92
2019-04-28T13:28:26.413Z,4.30
2019-04-28T13:30:55.474Z,5.65
2019-04-28T13:33:24.592Z,4.95
2019-04-28T13:35:53.643Z,5.75
2019-04-28T13:38:22.808Z,5.17
2019-04-28T13:40:51.893Z,4.75
2019-04-28T13:43:20.935Z,4.58
2019-04-28T13:45:49.976Z,4.67
2019-04-28T13:48:19.019Z,4.78
2019-04-28T13:50:49.121Z,5.83
2019-04-28T13:53:18.400Z,6.03
2019-04-28T13:55:49.175Z,5.55
2019-04-28T13:58:32.355Z,5.30
2019-04-28T14:01:15.241Z,5.17
2019-04-28T14:03:55.235Z,6.17
2019-04-28T14:06:32.135Z,5.50
2019-04-28T14:09:01.193Z,3.80
2019-04-28T14:11:30.292Z,5.40
2019-04-28T14:13:59.334Z,4.78
2019-04-28T14:16:28.385Z,6.17
2019-04-28T14:18:57.488Z,4.90
2019-04-28T14:21:26.324Z,5.53
2019-04-28T14:23:55.073Z,6.03
2019-04-28T14:26:23.867Z,4.67
2019-04-28T14:28:52.654Z,4.33
2019-04-28T14:31:21.394Z,6.27
2019-04-28T14:33:50.169Z,4.83
2019-04-28T14:36:18.907Z,5.23
2019-04-28T14:38:47.674Z,4.37
2019-04-28T14:41:16.440Z,4.50
2019-04-28T14:43:45.252Z,4.93
2019-04-28T14:46:14.091Z,3.97
2019-04-28T14:48:42.837Z,4.60
2019-04-28T14:51:11.650Z,4.23
2019-04-28T14:53:40.637Z,4.70
2019-04-28T14:56:09.555Z,4.63
2019-04-28T14:58:38.612Z,5.58
2019-04-28T15:01:09.463Z,6.05
2019-04-28T15:03:52.063Z,6.90
2019-04-28T15:06:22.527Z,6.20
2019-04-28T15:08:58.924Z,6.50
2019-04-28T15:11:32.349Z,7.03
2019-04-28T15:14:01.345Z,5.70
2019-04-28T15:16:30.193Z,6.53
2019-04-28T15:18:58.979Z,5.30
2019-04-28T15:21:27.792Z,7.47
2019-04-28T15:23:56.913Z,6.42
2019-04-28T15:26:26.081Z,5.47
2019-04-28T15:28:55.115Z,5.50
2019-04-28T15:31:24.157Z,5.87
2019-04-28T15:33:52.914Z,4.97
2019-04-28T15:36:21.975Z,6.17
2019-04-28T15:38:50.716Z,5.70
2019-04-28T15:41:21.695Z,7.03
2019-04-28T15:43:49.957Z,5.13
2019-04-28T15:46:18.728Z,4.83
2019-04-28T15:48:47.468Z,5.37
2019-04-28T15:51:16.222Z,5.33
2019-04-28T15:53:46.606Z,4.20
2019-04-28T15:56:29.003Z,6.17
2019-04-28T15:58:57.735Z,5.40
2019-04-28T16:01:26.858Z,4.22
2019-04-28T16:03:55.966Z,7.08
2019-04-28T16:06:25.266Z,5.65
2019-04-28T16:08:54.300Z,5.87
2019-04-28T16:11:23.348Z,4.75
2019-04-28T16:13:52.103Z,5.30
2019-04-28T16:16:20.941Z,5.23
2019-04-28T16:18:49.691Z,7.40
2019-04-28T16:21:18.437Z,4.77
2019-04-28T16:23:47.230Z,6.47
2019-04-28T16:26:16.035Z,4.87
2019-04-28T16:28:44.785Z,6.47
2019-04-28T16:31:13.596Z,6.67
2019-04-28T16:33:42.356Z,7.03
2019-04-28T16:36:11.123Z,4.90
2019-04-28T16:38:40.165Z,9.28
2019-04-28T16:41:11.455Z,9.78
2019-04-28T16:43:42.925Z,12.20
2019-04-28T16:46:11.979Z,10.43
2019-04-28T16:48:41.031Z,7.85
2019-04-28T16:51:10.059Z,7.37
2019-04-28T16:53:39.101Z,6.62
2019-04-28T16:56:29.369Z,8.20
2019-04-28T16:59:05.959Z,9.93
2019-04-28T17:01:36.657Z,12.63
2019-04-28T17:04:05.785Z,9.90
2019-04-28T17:06:34.836Z,10.72
2019-04-28T17:09:05.722Z,7.85
2019-04-28T17:11:34.833Z,8.95
2019-04-28T17:14:04.074Z,14.87
2019-04-28T17:16:33.124Z,13.40
2019-04-28T17:19:02.223Z,9.40
2019-04-28T17:21:31.624Z,11.45
2019-04-28T17:24:00.690Z,12.18
2019-04-28T17:26:29.744Z,10.45
2019-04-28T17:28:58.809Z,10.08
2019-04-28T17:31:27.853Z,8.18
2019-04-28T17:33:56.910Z,9.30
2019-04-28T17:36:26.030Z,13.88
2019-04-28T17:38:55.095Z,11.48
2019-04-28T17:41:24.676Z,13.03
2019-04-28T17:43:53.742Z,11.30
2019-04-28T17:46:22.850Z,10.35
2019-04-28T17:48:53.579Z,11.03
2019-04-28T17:51:22.615Z,9.95
2019-04-28T17:53:51.672Z,9.25
2019-04-28T17:56:20.710Z,11.20
2019-04-28T17:58:49.789Z,10.70
2019-04-28T18:01:32.648Z,9.20
2019-04-28T18:04:19.647Z,9.45
2019-04-28T18:07:08.298Z,10.33
2019-04-28T18:09:37.380Z,11.20
2019-04-28T18:12:06.590Z,12.45
2019-04-28T18:14:36.629Z,15.30
2019-04-28T18:17:10.084Z,12.88
2019-04-28T18:19:39.175Z,19.48
2019-04-28T18:22:08.249Z,15.35
2019-04-28T18:24:39.946Z,11.85
2019-04-28T18:27:08.067Z,9.55
2019-04-28T18:29:37.130Z,12.20
2019-04-28T18:32:13.297Z,9.33
2019-04-28T18:34:43.991Z,10.90
2019-04-28T18:37:14.689Z,11.05
2019-04-28T18:40:00.825Z,13.32
2019-04-28T18:42:46.312Z,33.15
2019-04-28T18:45:16.347Z,26.15
2019-04-28T18:47:45.414Z,28.50
2019-04-28T18:50:16.101Z,15.20
2019-04-28T18:52:45.305Z,31.45
2019-04-28T18:55:14.367Z,20.00
2019-04-28T18:57:43.441Z,18.30
2019-04-28T19:00:12.930Z,12.68
2019-04-28T19:02:48.391Z,14.60
2019-04-28T19:05:18.086Z,33.48
2019-04-28T19:07:48.808Z,34.73
2019-04-28T19:10:19.651Z,64.47
2019-04-28T19:13:06.860Z,54.40
2019-04-28T19:15:46.650Z,61.60
2019-04-28T19:18:17.350Z,26.07
2019-04-28T19:20:46.392Z,56.02
2019-04-28T19:23:15.461Z,84.83
2019-04-28T19:25:44.486Z,77.45
2019-04-28T19:28:13.578Z,24.23
2019-04-28T19:30:45.480Z,18.07
2019-04-28T19:33:13.438Z,13.68
2019-04-28T19:35:42.484Z,10.80
2019-04-28T19:38:11.552Z,9.73
2019-04-28T19:40:40.758Z,14.50
2019-04-28T19:43:09.820Z,10.90
2019-04-28T19:45:40.759Z,15.50
2019-04-28T19:48:09.834Z,12.13
2019-04-28T19:50:38.891Z,11.20
2019-04-28T19:53:07.963Z,10.23
2019-04-28T19:55:38.724Z,12.07
2019-04-28T19:58:09.513Z,11.53
2019-04-28T20:00:49.227Z,10.30
2019-04-28T20:03:18.292Z,11.03
2019-04-28T20:05:47.344Z,12.00
2019-04-28T20:08:16.427Z,10.23
2019-04-28T20:10:45.631Z,9.08
2019-04-28T20:13:14.706Z,9.33
2019-04-28T20:15:43.775Z,12.70
2019-04-28T20:18:12.847Z,11.83
2019-04-28T20:20:41.881Z,11.90
2019-04-28T20:23:10.950Z,11.15
2019-04-28T20:25:40.007Z,10.10
2019-04-28T20:28:09.059Z,9.73
2019-04-28T20:30:38.123Z,12.80
2019-04-28T20:33:07.860Z,13.43
2019-04-28T20:35:38.765Z,10.23
2019-04-28T20:38:09.457Z,9.13
2019-04-28T20:40:49.169Z,11.50
2019-04-28T20:43:22.835Z,12.00
2019-04-28T20:45:51.925Z,13.90
2019-04-28T20:48:21.040Z,12.00
2019-04-28T20:50:50.088Z,9.03
2019-04-28T20:53:19.470Z,11.05
2019-04-28T20:55:48.673Z,9.35
2019-04-28T20:58:17.735Z,10.13
2019-04-28T21:00:46.938Z,10.53
2019-04-28T21:03:15.996Z,10.55
2019-04-28T21:05:45.066Z,10.50
2019-04-28T21:08:14.128Z,9.05
2019-04-28T21:10:43.188Z,11.30
2019-04-28T21:13:12.310Z,10.10
2019-04-28T21:15:41.362Z,9.43
2019-04-28T21:18:10.412Z,11.35
2019-04-28T21:20:39.490Z,10.38
2019-04-28T21:23:08.548Z,10.25
2019-04-28T21:25:37.612Z,11.18
2019-04-28T21:28:06.714Z,7.60
2019-04-28T21:30:35.766Z,10.75
2019-04-28T21:33:04.828Z,10.45
2019-04-28T21:35:33.882Z,10.10
2019-04-28T21:38:02.934Z,9.58
2019-04-28T21:40:32.042Z,8.30
2019-04-28T21:43:17.788Z,11.88
2019-04-28T21:46:00.716Z,12.60
2019-04-28T21:48:43.385Z,9.13
2019-04-28T21:51:12.487Z,9.68
2019-04-28T21:53:41.572Z,11.08
2019-04-28T21:56:10.620Z,9.85
2019-04-28T21:58:39.677Z,16.45
2019-04-28T22:01:11.420Z,9.38
2019-04-28T22:03:40.462Z,12.47
2019-04-28T22:06:09.607Z,8.58
2019-04-28T22:08:38.825Z,10.38
2019-04-28T22:11:07.886Z,11.68
2019-04-28T22:13:36.934Z,8.95
2019-04-28T22:16:06.003Z,8.70
2019-04-28T22:18:35.055Z,11.40
2019-04-28T22:21:04.102Z,8.93
2019-04-28T22:23:43.884Z,10.32
2019-04-28T22:26:14.586Z,10.28
2019-04-28T22:28:43.616Z,9.55
2019-04-28T22:31:12.686Z,10.30
2019-04-28T22:33:41.741Z,10.63
2019-04-28T22:36:10.813Z,10.98
2019-04-28T22:38:39.899Z,10.23
2019-04-28T22:41:09.023Z,10.95
2019-04-28T22:43:38.067Z,10.95
2019-04-28T22:46:07.141Z,11.48
2019-04-28T22:48:36.263Z,13.40
2019-04-28T22:51:05.315Z,11.20
2019-04-28T22:53:36.009Z,9.63
2019-04-28T22:56:06.775Z,10.63
2019-04-28T22:58:43.325Z,9.10
2019-04-28T23:01:30.303Z,10.63
2019-04-28T23:04:01.161Z,14.35
2019-04-28T23:06:30.204Z,10.50
2019-04-28T23:08:59.273Z,11.75
2019-04-28T23:11:28.516Z,11.70
2019-04-28T23:13:57.580Z,10.43
2019-04-28T23:16:26.630Z,12.25
2019-04-28T23:18:56.264Z,12.07
2019-04-28T23:21:43.277Z,11.78
2019-04-28T23:24:12.350Z,11.43
2019-04-28T23:26:41.396Z,11.00
2019-04-28T23:29:10.460Z,10.93
2019-04-28T23:31:39.502Z,10.63
2019-04-28T23:34:08.571Z,11.20
2019-04-28T23:36:37.647Z,10.35
2019-04-28T23:39:07.832Z,11.50
2019-04-28T23:41:50.573Z,12.23
2019-04-28T23:44:19.632Z,12.70
2019-04-28T23:46:56.537Z,11.20
2019-04-28T23:49:29.525Z,11.65
2019-04-28T23:52:00.276Z,13.58
2019-04-28T23:54:29.336Z,9.58
2019-04-28T23:56:58.375Z,12.95
2019-04-28T23:59:27.441Z,11.48
